createdAt,value
2023-05-21T00:00:19.962Z,53.51
2023-05-21T00:01:19.935Z,53.36
2023-05-21T00:02:20.036Z,53.17
2023-05-21T00:03:19.998Z,52.97
2023-05-21T00:04:19.932Z,52.94
2023-05-21T00:05:19.949Z,52.92
2023-05-21T00:06:19.971Z,53.26
2023-05-21T00:07:19.956Z,53.08
2023-05-21T00:08:19.884Z,53.11
2023-05-21T00:09:19.880Z,53.02
2023-05-21T00:10:19.865Z,52.99
2023-05-21T00:11:19.906Z,53.01
2023-05-21T00:12:19.810Z,52.96
2023-05-21T00:13:19.784Z,52.94
2023-05-21T00:14:19.765Z,53.08
2023-05-21T00:15:19.742Z,53.21
2023-05-21T00:16:19.762Z,53.14
2023-05-21T00:17:19.749Z,53.82
2023-05-21T00:18:19.620Z,53.90
2023-05-21T00:19:19.620Z,53.41
2023-05-21T00:20:19.538Z,53.60
2023-05-21T00:21:19.489Z,53.54
2023-05-21T00:22:19.459Z,53.54
2023-05-21T00:23:19.402Z,53.40
2023-05-21T00:24:19.330Z,53.02
2023-05-21T00:25:19.292Z,52.92
2023-05-21T00:26:19.241Z,52.83
2023-05-21T00:27:19.241Z,52.99
2023-05-21T00:28:19.273Z,53.50
2023-05-21T00:29:19.143Z,53.79
2023-05-21T00:30:19.092Z,53.56
2023-05-21T00:31:19.091Z,53.73
2023-05-21T00:32:19.011Z,53.50
2023-05-21T00:33:18.968Z,53.37
2023-05-21T00:34:18.900Z,53.04
2023-05-21T00:35:18.847Z,53.06
2023-05-21T00:36:18.783Z,52.96
2023-05-21T00:37:18.738Z,53.01
2023-05-21T00:38:18.778Z,53.45
2023-05-21T00:39:18.661Z,53.40
2023-05-21T00:40:18.635Z,53.43
2023-05-21T00:41:18.552Z,53.80
2023-05-21T00:42:18.522Z,53.88
2023-05-21T00:43:18.465Z,53.96
2023-05-21T00:44:18.408Z,53.85
2023-05-21T00:45:18.368Z,53.51
2023-05-21T00:46:18.380Z,53.71
2023-05-21T00:47:18.317Z,53.85
2023-05-21T00:48:18.243Z,53.85
2023-05-21T00:49:18.209Z,53.98
2023-05-21T00:50:18.203Z,53.90
2023-05-21T00:51:18.142Z,53.67
2023-05-21T00:52:18.094Z,53.43
2023-05-21T00:53:18.064Z,53.75
2023-05-21T00:54:18.025Z,53.75
2023-05-21T00:55:17.990Z,53.75
2023-05-21T00:56:17.943Z,53.52
2023-05-21T00:57:17.894Z,53.39
2023-05-21T00:58:17.859Z,53.36
2023-05-21T00:59:17.808Z,53.49
2023-05-21T01:00:17.781Z,53.58
2023-05-21T01:01:17.798Z,53.65
2023-05-21T01:02:17.725Z,53.56
2023-05-21T01:03:17.737Z,53.82
2023-05-21T01:04:17.689Z,53.79
2023-05-21T01:05:17.612Z,54.05
2023-05-21T01:06:17.622Z,54.02
2023-05-21T01:07:17.545Z,54.05
2023-05-21T01:08:17.501Z,54.14
2023-05-21T01:09:17.452Z,54.14
2023-05-21T01:10:17.429Z,54.41
2023-05-21T01:11:17.381Z,54.47
2023-05-21T01:12:17.337Z,54.33
2023-05-21T01:13:17.309Z,54.12
2023-05-21T01:14:17.275Z,54.27
2023-05-21T01:15:17.205Z,54.13
2023-05-21T01:16:17.260Z,54.07
2023-05-21T01:17:17.148Z,54.07
2023-05-21T01:18:17.095Z,54.15
2023-05-21T01:19:17.123Z,54.12
2023-05-21T01:20:17.002Z,54.35
2023-05-21T01:21:16.953Z,54.23
2023-05-21T01:22:16.928Z,54.00
2023-05-21T01:23:16.896Z,54.09
2023-05-21T01:24:16.832Z,54.44
2023-05-21T01:25:16.804Z,54.86
2023-05-21T01:26:16.807Z,54.48
2023-05-21T01:27:16.713Z,54.54
2023-05-21T01:28:16.658Z,54.78
2023-05-21T01:29:16.623Z,54.54
2023-05-21T01:30:16.589Z,54.48
2023-05-21T01:31:16.655Z,54.37
2023-05-21T01:32:16.519Z,54.12
2023-05-21T01:33:16.575Z,53.93
2023-05-21T01:34:16.465Z,53.95
2023-05-21T01:35:16.495Z,54.10
2023-05-21T01:36:16.429Z,54.46
2023-05-21T01:37:16.424Z,54.63
2023-05-21T01:38:16.402Z,54.48
2023-05-21T01:39:16.388Z,54.66
2023-05-21T01:40:16.380Z,54.37
2023-05-21T01:41:16.390Z,54.44
2023-05-21T01:42:16.369Z,54.19
2023-05-21T01:43:16.368Z,53.96
2023-05-21T01:44:16.417Z,53.95
2023-05-21T01:45:16.397Z,53.88
2023-05-21T01:46:16.470Z,54.05
2023-05-21T01:47:16.395Z,54.01
2023-05-21T01:48:16.455Z,54.02
2023-05-21T01:49:16.417Z,54.19
2023-05-21T01:50:16.393Z,54.34
2023-05-21T01:51:16.362Z,54.43
2023-05-21T01:52:16.363Z,54.20
2023-05-21T01:53:16.353Z,54.17
2023-05-21T01:54:16.351Z,54.02
2023-05-21T01:55:16.362Z,54.23
2023-05-21T01:56:16.334Z,54.20
2023-05-21T01:57:16.353Z,54.50
2023-05-21T01:58:16.375Z,54.44
2023-05-21T01:59:16.391Z,54.39
2023-05-21T02:00:16.398Z,54.81
2023-05-21T02:01:16.369Z,54.74
2023-05-21T02:02:16.463Z,54.64
2023-05-21T02:03:16.532Z,54.66
2023-05-21T02:04:16.397Z,54.70
2023-05-21T02:05:16.421Z,54.74
2023-05-21T02:06:16.401Z,54.83
2023-05-21T02:07:16.391Z,55.04
2023-05-21T02:08:16.385Z,54.91
2023-05-21T02:09:16.373Z,55.12
2023-05-21T02:10:16.383Z,55.20
2023-05-21T02:11:16.387Z,54.91
2023-05-21T02:12:16.450Z,54.95
2023-05-21T02:13:16.400Z,55.24
2023-05-21T02:14:16.477Z,55.37
2023-05-21T02:15:16.379Z,55.50
2023-05-21T02:16:16.447Z,55.37
2023-05-21T02:17:16.469Z,55.29
2023-05-21T02:18:16.394Z,55.01
2023-05-21T02:19:16.500Z,54.93
2023-05-21T02:20:16.408Z,55.41
2023-05-21T02:21:16.391Z,55.19
2023-05-21T02:22:16.395Z,55.31
2023-05-21T02:23:16.439Z,55.47
2023-05-21T02:24:16.451Z,55.53
2023-05-21T02:25:16.470Z,55.51
2023-05-21T02:26:16.473Z,55.27
2023-05-21T02:27:16.438Z,55.16
2023-05-21T02:28:16.466Z,55.20
2023-05-21T02:29:16.444Z,55.46
2023-05-21T02:30:16.463Z,55.40
2023-05-21T02:31:16.472Z,55.52
2023-05-21T02:32:16.482Z,55.63
2023-05-21T02:33:16.491Z,55.44
2023-05-21T02:34:16.540Z,55.34
2023-05-21T02:35:16.521Z,55.22
2023-05-21T02:36:16.533Z,55.19
2023-05-21T02:37:16.566Z,55.05
2023-05-21T02:38:16.608Z,55.12
2023-05-21T02:39:16.612Z,55.08
2023-05-21T02:40:16.617Z,55.03
2023-05-21T02:41:16.633Z,54.97
2023-05-21T02:42:16.682Z,55.33
2023-05-21T02:43:16.704Z,55.44
2023-05-21T02:44:16.676Z,55.55
2023-05-21T02:45:16.696Z,55.71
2023-05-21T02:46:16.747Z,55.33
2023-05-21T02:47:16.704Z,55.43
2023-05-21T02:48:16.710Z,55.17
2023-05-21T02:49:16.730Z,55.04
2023-05-21T02:50:16.759Z,55.01
2023-05-21T02:51:16.778Z,55.14
2023-05-21T02:52:16.799Z,55.05
2023-05-21T02:53:16.818Z,55.29
2023-05-21T02:54:16.861Z,55.61
2023-05-21T02:55:16.855Z,55.33
2023-05-21T02:56:16.880Z,55.54
2023-05-21T02:57:16.874Z,55.44
2023-05-21T02:58:16.907Z,55.27
2023-05-21T02:59:16.890Z,55.22
2023-05-21T03:00:16.900Z,55.09
2023-05-21T03:01:16.962Z,55.04
2023-05-21T03:02:16.970Z,54.96
2023-05-21T03:03:17.076Z,55.01
2023-05-21T03:04:16.972Z,55.24
2023-05-21T03:05:17.003Z,55.26
2023-05-21T03:06:17.020Z,55.20
2023-05-21T03:07:17.049Z,55.34
2023-05-21T03:08:17.075Z,55.82
2023-05-21T03:09:17.118Z,55.64
2023-05-21T03:10:17.136Z,55.74
2023-05-21T03:11:17.160Z,55.73
2023-05-21T03:12:17.156Z,55.75
2023-05-21T03:13:17.229Z,55.53
2023-05-21T03:14:17.200Z,55.56
2023-05-21T03:15:17.256Z,55.50
2023-05-21T03:16:17.325Z,55.39
2023-05-21T03:17:17.297Z,55.30
2023-05-21T03:18:17.352Z,55.24
2023-05-21T03:19:17.405Z,55.12
2023-05-21T03:20:17.418Z,55.21
2023-05-21T03:21:17.430Z,55.24
2023-05-21T03:22:17.467Z,55.35
2023-05-21T03:23:17.517Z,55.36
2023-05-21T03:24:17.686Z,55.51
2023-05-21T03:25:17.593Z,55.44
2023-05-21T03:26:17.711Z,55.47
2023-05-21T03:27:17.665Z,55.57
2023-05-21T03:28:17.705Z,55.62
2023-05-21T03:29:17.717Z,55.54
2023-05-21T03:30:17.756Z,55.56
2023-05-21T03:31:17.769Z,55.67
2023-05-21T03:32:17.879Z,55.62
2023-05-21T03:33:17.823Z,55.67
2023-05-21T03:34:17.848Z,55.70
2023-05-21T03:35:17.856Z,55.74
2023-05-21T03:36:17.856Z,55.73
2023-05-21T03:37:17.864Z,55.83
2023-05-21T03:38:17.923Z,55.74
2023-05-21T03:39:17.952Z,55.81
2023-05-21T03:40:17.962Z,55.90
2023-05-21T03:41:17.960Z,56.10
2023-05-21T03:42:17.980Z,56.34
2023-05-21T03:43:18.005Z,56.24
2023-05-21T03:44:18.026Z,56.28
2023-05-21T03:45:18.040Z,56.38
2023-05-21T03:46:18.149Z,56.50
2023-05-21T03:47:18.149Z,56.37
2023-05-21T03:48:18.130Z,56.46
2023-05-21T03:49:18.757Z,56.70
2023-05-21T03:50:18.216Z,56.49
2023-05-21T03:51:18.294Z,56.73
2023-05-21T03:52:18.245Z,56.78
2023-05-21T03:53:18.265Z,56.90
2023-05-21T03:54:18.291Z,56.73
2023-05-21T03:55:18.357Z,56.67
2023-05-21T03:56:18.320Z,56.77
2023-05-21T03:57:18.377Z,56.78
2023-05-21T03:58:18.393Z,56.75
2023-05-21T03:59:18.418Z,56.60
2023-05-21T04:00:18.450Z,56.56
2023-05-21T04:01:18.469Z,56.34
2023-05-21T04:02:18.655Z,56.25
2023-05-21T04:03:18.831Z,56.38
2023-05-21T04:04:18.646Z,56.28
2023-05-21T04:05:18.631Z,56.68
2023-05-21T04:06:18.740Z,56.77
2023-05-21T04:07:18.758Z,56.76
2023-05-21T04:08:18.703Z,56.67
2023-05-21T04:09:18.752Z,56.63
2023-05-21T04:10:18.772Z,56.91
2023-05-21T04:11:18.788Z,56.61
2023-05-21T04:12:19.758Z,56.67
2023-05-21T04:13:18.726Z,56.42
2023-05-21T04:14:18.684Z,56.32
2023-05-21T04:15:18.682Z,56.25
2023-05-21T04:16:18.659Z,56.38
2023-05-21T04:17:18.601Z,56.34
2023-05-21T04:18:18.582Z,56.33
2023-05-21T04:19:18.618Z,56.57
2023-05-21T04:20:18.522Z,56.70
2023-05-21T04:21:18.480Z,56.57
2023-05-21T04:22:18.482Z,56.74
2023-05-21T04:23:18.453Z,57.48
2023-05-21T04:24:18.395Z,57.19
2023-05-21T04:25:18.413Z,57.14
2023-05-21T04:26:18.342Z,56.68
2023-05-21T04:27:18.372Z,56.81
2023-05-21T04:28:18.266Z,56.77
2023-05-21T04:29:18.221Z,56.77
2023-05-21T04:30:18.188Z,56.89
2023-05-21T04:31:18.201Z,56.86
2023-05-21T04:32:18.123Z,56.97
2023-05-21T04:33:18.581Z,56.80
2023-05-21T04:34:18.085Z,56.97
2023-05-21T04:35:18.062Z,56.88
2023-05-21T04:36:18.095Z,56.80
2023-05-21T04:37:18.003Z,56.79
2023-05-21T04:38:18.061Z,56.93
2023-05-21T04:39:17.989Z,57.02
2023-05-21T04:40:18.034Z,56.78
2023-05-21T04:41:17.961Z,56.92
2023-05-21T04:42:17.973Z,56.84
2023-05-21T04:43:17.980Z,56.88
2023-05-21T04:44:18.110Z,56.86
2023-05-21T04:45:18.013Z,56.75
2023-05-21T04:46:18.048Z,56.73
2023-05-21T04:47:17.951Z,56.49
2023-05-21T04:48:17.907Z,56.49
2023-05-21T04:49:17.877Z,56.67
2023-05-21T04:50:17.850Z,56.66
2023-05-21T04:51:17.850Z,56.74
2023-05-21T04:52:17.869Z,56.66
2023-05-21T04:53:17.761Z,56.56
2023-05-21T04:54:17.736Z,56.34
2023-05-21T04:55:17.723Z,56.23
2023-05-21T04:56:17.694Z,56.16
2023-05-21T04:57:17.619Z,56.02
2023-05-21T04:58:17.616Z,56.03
2023-05-21T04:59:17.570Z,56.24
2023-05-21T05:00:17.614Z,56.20
2023-05-21T05:01:17.537Z,56.15
2023-05-21T05:02:17.534Z,56.24
2023-05-21T05:03:17.513Z,56.94
2023-05-21T05:04:17.411Z,56.59
2023-05-21T05:05:17.373Z,56.18
2023-05-21T05:06:17.404Z,56.07
2023-05-21T05:07:17.300Z,55.99
2023-05-21T05:08:17.237Z,55.68
2023-05-21T05:09:17.210Z,55.82
2023-05-21T05:10:17.167Z,55.71
2023-05-21T05:11:17.152Z,55.63
2023-05-21T05:12:17.140Z,55.85
2023-05-21T05:13:17.127Z,55.78
2023-05-21T05:14:17.027Z,55.56
2023-05-21T05:15:17.034Z,55.40
2023-05-21T05:16:16.988Z,54.97
2023-05-21T05:17:16.993Z,54.74
2023-05-21T05:18:16.915Z,54.65
2023-05-21T05:19:16.917Z,54.57
2023-05-21T05:20:16.822Z,54.52
2023-05-21T05:21:16.755Z,54.33
2023-05-21T05:22:16.721Z,54.46
2023-05-21T05:23:16.691Z,54.39
2023-05-21T05:24:16.672Z,54.64
2023-05-21T05:25:16.698Z,54.45
2023-05-21T05:26:16.737Z,54.30
2023-05-21T05:27:16.787Z,54.20
2023-05-21T05:28:16.780Z,54.21
2023-05-21T05:29:16.772Z,54.26
2023-05-21T05:30:16.781Z,54.42
2023-05-21T05:31:16.832Z,54.32
2023-05-21T05:32:16.796Z,54.20
2023-05-21T05:33:16.863Z,54.28
2023-05-21T05:34:16.791Z,54.03
2023-05-21T05:35:16.787Z,53.91
2023-05-21T05:36:16.821Z,53.95
2023-05-21T05:37:16.805Z,54.29
2023-05-21T05:38:16.794Z,54.22
2023-05-21T05:39:16.865Z,54.24
2023-05-21T05:40:16.803Z,54.27
2023-05-21T05:41:16.797Z,54.01
2023-05-21T05:42:16.810Z,54.49
2023-05-21T05:43:16.864Z,54.49
2023-05-21T05:44:16.866Z,54.39
2023-05-21T05:45:16.886Z,54.57
2023-05-21T05:46:16.960Z,54.86
2023-05-21T05:47:16.954Z,55.24
2023-05-21T05:48:16.967Z,55.15
2023-05-21T05:49:17.006Z,55.07
2023-05-21T05:50:17.024Z,55.04
2023-05-21T05:51:17.059Z,54.93
2023-05-21T05:52:17.083Z,54.92
2023-05-21T05:53:17.076Z,54.73
2023-05-21T05:54:17.076Z,54.66
2023-05-21T05:55:17.107Z,54.53
2023-05-21T05:56:17.190Z,54.62
2023-05-21T05:57:17.133Z,54.57
2023-05-21T05:58:17.081Z,54.68
2023-05-21T05:59:17.060Z,54.59
2023-05-21T06:00:17.032Z,54.05
2023-05-21T06:01:17.034Z,53.99
2023-05-21T06:02:17.053Z,53.99
2023-05-21T06:03:17.045Z,53.82
2023-05-21T06:04:16.984Z,53.93
2023-05-21T06:05:17.183Z,53.59
2023-05-21T06:06:17.122Z,53.60
2023-05-21T06:07:17.027Z,53.27
2023-05-21T06:08:17.031Z,53.23
2023-05-21T06:09:17.045Z,53.23
2023-05-21T06:10:17.057Z,53.09
2023-05-21T06:11:17.166Z,53.42
2023-05-21T06:12:17.108Z,53.66
2023-05-21T06:13:17.111Z,53.80
2023-05-21T06:14:17.121Z,53.94
2023-05-21T06:15:17.214Z,53.89
2023-05-21T06:16:17.246Z,53.78
2023-05-21T06:17:17.133Z,53.63
2023-05-21T06:18:17.146Z,53.43
2023-05-21T06:19:17.189Z,52.98
2023-05-21T06:20:17.097Z,52.89
2023-05-21T06:21:17.106Z,52.54
2023-05-21T06:22:17.075Z,52.59
2023-05-21T06:23:17.058Z,52.53
2023-05-21T06:24:17.041Z,52.69
2023-05-21T06:25:17.039Z,52.58
2023-05-21T06:26:16.996Z,52.52
2023-05-21T06:27:16.989Z,52.59
2023-05-21T06:28:16.942Z,52.71
2023-05-21T06:29:16.904Z,52.76
2023-05-21T06:30:16.900Z,52.57
2023-05-21T06:31:16.854Z,52.32
2023-05-21T06:32:17.095Z,52.49
2023-05-21T06:33:16.894Z,52.40
2023-05-21T06:34:16.753Z,52.46
2023-05-21T06:35:16.735Z,52.75
2023-05-21T06:36:16.734Z,53.08
2023-05-21T06:37:16.626Z,53.24
2023-05-21T06:38:16.584Z,53.17
2023-05-21T06:39:16.668Z,53.09
2023-05-21T06:40:17.007Z,53.28
2023-05-21T06:41:17.033Z,53.41
2023-05-21T06:42:17.210Z,53.69
2023-05-21T06:43:17.443Z,53.45
2023-05-21T06:44:17.615Z,52.86
2023-05-21T06:45:17.818Z,52.53
2023-05-21T06:46:18.082Z,52.38
2023-05-21T06:47:18.176Z,52.32
2023-05-21T06:48:18.358Z,52.02
2023-05-21T06:49:18.559Z,51.66
2023-05-21T06:50:18.749Z,51.47
2023-05-21T06:51:18.949Z,51.54
2023-05-21T06:52:19.165Z,51.82
2023-05-21T06:53:19.348Z,51.83
2023-05-21T06:54:19.602Z,51.67
2023-05-21T06:55:19.724Z,51.11
2023-05-21T06:56:19.883Z,51.27
2023-05-21T06:57:20.096Z,51.56
2023-05-21T06:58:20.235Z,51.56
2023-05-21T06:59:20.370Z,51.45
2023-05-21T07:00:20.541Z,51.76
2023-05-21T07:01:20.732Z,51.00
2023-05-21T07:02:20.924Z,50.74
2023-05-21T07:03:21.071Z,50.54
2023-05-21T07:04:21.254Z,50.34
2023-05-21T07:05:21.384Z,50.15
2023-05-21T07:06:21.597Z,50.54
2023-05-21T07:07:21.692Z,50.28
2023-05-21T07:08:21.932Z,49.47
2023-05-21T07:09:22.139Z,49.42
2023-05-21T07:10:22.317Z,49.38
2023-05-21T07:11:22.546Z,49.45
2023-05-21T07:12:22.632Z,49.76
2023-05-21T07:13:22.786Z,50.04
2023-05-21T07:14:22.951Z,49.89
2023-05-21T07:15:23.104Z,49.58
2023-05-21T07:16:23.312Z,49.94
2023-05-21T07:17:23.497Z,49.69
2023-05-21T07:18:23.669Z,48.99
2023-05-21T07:19:23.821Z,49.33
2023-05-21T07:20:23.908Z,49.57
2023-05-21T07:21:24.023Z,49.47
2023-05-21T07:22:25.949Z,49.44
2023-05-21T07:23:24.092Z,49.05
2023-05-21T07:24:23.986Z,49.18
2023-05-21T07:25:23.918Z,49.40
2023-05-21T07:26:23.853Z,48.68
2023-05-21T07:27:25.667Z,48.58
2023-05-21T07:28:23.709Z,49.71
2023-05-21T07:29:23.651Z,49.75
2023-05-21T07:30:23.613Z,49.73
2023-05-21T07:31:23.626Z,49.69
2023-05-21T07:32:23.612Z,48.97
2023-05-21T07:33:23.532Z,49.41
2023-05-21T07:34:23.465Z,49.71
2023-05-21T07:35:23.414Z,49.79
2023-05-21T07:36:23.380Z,48.74
2023-05-21T07:37:23.402Z,48.38
2023-05-21T07:38:23.320Z,48.22
2023-05-21T07:39:23.288Z,48.09
2023-05-21T07:40:23.252Z,48.13
2023-05-21T07:41:23.255Z,48.00
2023-05-21T07:42:23.213Z,48.27
2023-05-21T07:43:23.197Z,48.10
2023-05-21T07:44:23.158Z,47.90
2023-05-21T07:45:23.398Z,47.96
2023-05-21T07:46:23.531Z,48.08
2023-05-21T07:47:23.766Z,48.30
2023-05-21T07:48:23.909Z,48.35
2023-05-21T07:49:24.071Z,47.72
2023-05-21T07:50:24.216Z,46.62
2023-05-21T07:51:24.364Z,46.26
2023-05-21T07:52:24.614Z,45.57
2023-05-21T07:53:24.713Z,45.61
2023-05-21T07:54:24.888Z,46.01
2023-05-21T07:55:25.049Z,46.52
2023-05-21T07:56:25.206Z,47.13
2023-05-21T07:57:25.404Z,47.28
2023-05-21T07:58:25.518Z,47.61
2023-05-21T07:59:25.664Z,46.63
2023-05-21T08:00:25.816Z,46.23
2023-05-21T08:01:25.935Z,46.06
2023-05-21T08:02:26.235Z,46.19
2023-05-21T08:03:26.413Z,47.42
2023-05-21T08:04:26.271Z,47.45
2023-05-21T08:05:26.102Z,47.04
2023-05-21T08:06:26.019Z,46.60
2023-05-21T08:07:25.965Z,46.39
2023-05-21T08:08:25.888Z,46.27
2023-05-21T08:09:25.818Z,46.31
2023-05-21T08:10:25.745Z,45.38
2023-05-21T08:11:25.650Z,45.60
2023-05-21T08:12:25.644Z,45.45
2023-05-21T08:13:25.564Z,45.11
2023-05-21T08:14:25.518Z,46.29
2023-05-21T08:15:25.363Z,45.87
2023-05-21T08:16:25.397Z,45.95
2023-05-21T08:17:25.242Z,45.64
2023-05-21T08:18:25.179Z,44.73
2023-05-21T08:19:25.124Z,44.76
2023-05-21T08:20:25.005Z,44.77
2023-05-21T08:21:24.918Z,43.82
2023-05-21T08:22:24.908Z,44.13
2023-05-21T08:23:25.027Z,43.70
2023-05-21T08:24:25.160Z,43.97
2023-05-21T08:25:25.327Z,43.68
2023-05-21T08:26:25.493Z,43.35
2023-05-21T08:27:25.660Z,42.47
2023-05-21T08:28:25.856Z,42.78
2023-05-21T08:29:25.940Z,43.23
2023-05-21T08:30:26.071Z,43.40
2023-05-21T08:31:26.224Z,43.64
2023-05-21T08:32:26.367Z,43.82
2023-05-21T08:33:26.543Z,43.53
2023-05-21T08:34:26.738Z,42.17
2023-05-21T08:35:26.821Z,41.74
2023-05-21T08:36:26.985Z,41.48
2023-05-21T08:37:27.163Z,40.82
2023-05-21T08:38:29.494Z,41.03
2023-05-21T08:39:27.267Z,40.97
2023-05-21T08:40:27.166Z,38.71
2023-05-21T08:41:27.045Z,38.77
2023-05-21T08:42:36.453Z,37.96
2023-05-21T08:43:27.838Z,37.23
2023-05-21T08:44:26.704Z,38.87
2023-05-21T08:45:26.576Z,38.73
2023-05-21T08:46:26.548Z,39.59
2023-05-21T08:47:26.348Z,38.42
2023-05-21T08:48:26.254Z,38.66
2023-05-21T08:49:27.312Z,38.73
2023-05-21T08:50:26.020Z,39.10
2023-05-21T08:51:25.944Z,39.25
2023-05-21T08:52:25.734Z,39.43
2023-05-21T08:53:28.595Z,39.18
2023-05-21T08:54:25.492Z,38.33
2023-05-21T08:55:25.353Z,37.98
2023-05-21T08:56:25.227Z,37.76
2023-05-21T08:57:25.165Z,38.25
2023-05-21T08:58:24.985Z,38.19
2023-05-21T08:59:25.087Z,37.32
2023-05-21T09:00:25.238Z,38.22
2023-05-21T09:01:26.560Z,38.85
2023-05-21T09:02:25.288Z,38.52
2023-05-21T09:03:25.135Z,39.52
2023-05-21T09:04:24.972Z,36.94
2023-05-21T09:05:24.828Z,37.20
2023-05-21T09:06:24.710Z,37.88
2023-05-21T09:07:24.574Z,39.25
2023-05-21T09:08:24.444Z,40.07
2023-05-21T09:09:24.317Z,38.62
2023-05-21T09:10:24.255Z,40.72
2023-05-21T09:11:24.139Z,40.50
2023-05-21T09:12:23.947Z,39.04
2023-05-21T09:13:23.854Z,38.05
2023-05-21T09:14:23.668Z,37.87
2023-05-21T09:15:23.516Z,38.51
2023-05-21T09:16:23.435Z,38.47
2023-05-21T09:17:23.259Z,39.48
2023-05-21T09:18:23.115Z,39.46
2023-05-21T09:19:23.135Z,40.08
2023-05-21T09:20:22.852Z,39.31
2023-05-21T09:21:22.760Z,39.10
2023-05-21T09:22:22.596Z,38.77
2023-05-21T09:23:22.483Z,38.26
2023-05-21T09:24:22.351Z,38.62
2023-05-21T09:25:22.172Z,39.44
2023-05-21T09:26:22.032Z,38.29
2023-05-21T09:27:21.901Z,40.09
2023-05-21T09:28:21.749Z,38.84
2023-05-21T09:29:21.618Z,40.29
2023-05-21T09:30:25.948Z,38.69
2023-05-21T09:31:22.372Z,38.57
2023-05-21T09:32:21.266Z,39.76
2023-05-21T09:33:21.087Z,37.47
2023-05-21T09:34:21.039Z,37.44
2023-05-21T09:35:20.844Z,37.40
2023-05-21T09:36:20.691Z,38.18
2023-05-21T09:38:21.409Z,37.23
2023-05-21T09:39:20.281Z,37.28
2023-05-21T09:40:20.201Z,39.30
2023-05-21T09:41:21.833Z,38.54
2023-05-21T09:42:19.886Z,38.06
2023-05-21T09:43:19.749Z,38.09
2023-05-21T09:44:19.670Z,37.23
2023-05-21T09:45:19.638Z,37.38
2023-05-21T09:46:19.523Z,37.46
2023-05-21T09:47:19.451Z,37.46
2023-05-21T09:48:19.293Z,37.41
2023-05-21T09:49:19.231Z,38.12
2023-05-21T09:50:19.209Z,37.64
2023-05-21T09:51:19.083Z,37.45
2023-05-21T09:52:19.019Z,37.00
2023-05-21T09:53:18.942Z,36.52
2023-05-21T09:54:18.868Z,36.75
2023-05-21T09:55:18.828Z,36.85
2023-05-21T09:56:18.733Z,36.97
2023-05-21T09:57:18.628Z,36.51
2023-05-21T09:58:18.595Z,36.23
2023-05-21T09:59:18.429Z,36.65
2023-05-21T10:00:18.371Z,36.36
2023-05-21T10:01:18.312Z,36.93
2023-05-21T10:02:18.285Z,37.01
2023-05-21T10:03:18.529Z,36.72
2023-05-21T10:04:18.072Z,37.01
2023-05-21T10:05:17.941Z,36.40
2023-05-21T10:06:17.859Z,36.63
2023-05-21T10:07:17.751Z,37.92
2023-05-21T10:08:17.655Z,37.05
2023-05-21T10:09:17.557Z,36.90
2023-05-21T10:10:17.555Z,36.97
2023-05-21T10:11:17.408Z,35.95
2023-05-21T10:12:17.351Z,36.47
2023-05-21T10:13:17.234Z,36.21
2023-05-21T10:14:17.102Z,36.31
2023-05-21T10:15:17.004Z,36.38
2023-05-21T10:16:16.914Z,36.02
2023-05-21T10:17:17.368Z,35.97
2023-05-21T10:18:16.685Z,37.00
2023-05-21T10:19:16.624Z,37.09
2023-05-21T10:20:16.561Z,37.40
2023-05-21T10:21:16.371Z,36.62
2023-05-21T10:22:16.260Z,36.95
2023-05-21T10:23:16.161Z,35.99
2023-05-21T10:24:16.084Z,35.80
2023-05-21T10:25:15.999Z,35.79
2023-05-21T10:26:15.908Z,35.90
2023-05-21T10:27:15.765Z,36.34
2023-05-21T10:28:15.656Z,36.82
2023-05-21T10:29:17.301Z,36.91
2023-05-21T10:30:15.396Z,37.26
2023-05-21T10:31:15.228Z,36.69
2023-05-21T10:32:15.114Z,36.60
2023-05-21T10:33:14.937Z,36.29
2023-05-21T10:34:14.765Z,35.11
2023-05-21T10:35:14.577Z,34.99
2023-05-21T10:36:14.418Z,35.17
2023-05-21T10:37:14.467Z,35.53
2023-05-21T10:38:14.535Z,35.79
2023-05-21T10:39:14.685Z,36.33
2023-05-21T10:40:14.745Z,35.50
2023-05-21T10:41:14.826Z,34.82
2023-05-21T10:42:15.054Z,35.14
2023-05-21T10:43:15.130Z,35.40
2023-05-21T10:44:15.263Z,34.12
2023-05-21T10:45:15.272Z,34.70
2023-05-21T10:46:15.513Z,33.17
2023-05-21T10:47:15.539Z,32.70
2023-05-21T10:48:15.638Z,32.75
2023-05-21T10:49:15.701Z,34.09
2023-05-21T10:50:15.830Z,34.17
2023-05-21T10:51:15.952Z,34.83
2023-05-21T10:52:15.967Z,36.37
2023-05-21T10:53:16.130Z,33.50
2023-05-21T10:54:16.196Z,33.62
2023-05-21T10:55:16.361Z,31.97
2023-05-21T10:56:16.453Z,31.29
2023-05-21T10:57:16.540Z,31.07
2023-05-21T10:58:16.651Z,31.36
2023-05-21T10:59:16.759Z,32.17
2023-05-21T11:00:16.872Z,31.30
2023-05-21T11:01:17.014Z,31.79
2023-05-21T11:02:17.065Z,31.97
2023-05-21T11:03:17.358Z,32.59
2023-05-21T11:04:17.356Z,35.49
2023-05-21T11:05:17.448Z,37.38
2023-05-21T11:06:17.618Z,36.80
2023-05-21T11:07:17.768Z,36.79
2023-05-21T11:08:17.834Z,31.93
2023-05-21T11:09:17.973Z,32.24
2023-05-21T11:10:18.217Z,33.54
2023-05-21T11:11:18.209Z,34.12
2023-05-21T11:12:18.303Z,36.39
2023-05-21T11:13:18.432Z,36.73
2023-05-21T11:14:20.286Z,37.66
2023-05-21T11:15:18.396Z,38.57
2023-05-21T11:16:18.227Z,39.41
2023-05-21T11:17:18.220Z,39.53
2023-05-21T11:18:18.023Z,40.17
2023-05-21T11:19:17.984Z,40.19
2023-05-21T11:20:17.807Z,40.08
2023-05-21T11:21:17.603Z,40.46
2023-05-21T11:22:17.456Z,39.98
2023-05-21T11:23:17.403Z,39.32
2023-05-21T11:24:17.171Z,39.37
2023-05-21T11:25:17.168Z,40.47
2023-05-21T11:26:17.274Z,41.10
2023-05-21T11:27:17.349Z,41.33
2023-05-21T11:28:17.409Z,41.30
2023-05-21T11:29:18.399Z,41.20
2023-05-21T11:30:17.400Z,40.88
2023-05-21T11:31:17.221Z,40.94
2023-05-21T11:32:17.055Z,40.87
2023-05-21T11:33:16.971Z,39.98
2023-05-21T11:34:16.786Z,39.87
2023-05-21T11:35:16.598Z,38.58
2023-05-21T11:36:16.485Z,38.59
2023-05-21T11:37:16.506Z,39.04
2023-05-21T11:38:16.581Z,37.94
2023-05-21T11:39:16.713Z,38.30
2023-05-21T11:40:16.770Z,38.64
2023-05-21T11:41:16.920Z,39.00
2023-05-21T11:42:17.068Z,36.80
2023-05-21T11:43:17.110Z,36.59
2023-05-21T11:44:17.277Z,36.62
2023-05-21T11:45:17.437Z,35.79
2023-05-21T11:46:17.648Z,36.52
2023-05-21T11:47:17.749Z,36.23
2023-05-21T11:48:17.872Z,35.50
2023-05-21T11:49:17.956Z,36.28
2023-05-21T11:50:18.117Z,36.29
2023-05-21T11:51:18.173Z,36.04
2023-05-21T11:52:18.362Z,36.41
2023-05-21T11:53:18.448Z,36.04
2023-05-21T11:54:18.575Z,33.91
2023-05-21T11:55:18.795Z,34.35
2023-05-21T11:56:18.922Z,31.73
2023-05-21T11:57:19.017Z,32.97
2023-05-21T11:58:19.219Z,34.01
2023-05-21T11:59:19.366Z,34.35
2023-05-21T12:00:19.434Z,32.96
2023-05-21T12:01:19.277Z,32.82
2023-05-21T12:02:19.127Z,32.60
2023-05-21T12:03:19.022Z,33.03
2023-05-21T12:04:18.972Z,33.22
2023-05-21T12:05:19.074Z,33.61
2023-05-21T12:06:19.292Z,30.75
2023-05-21T12:07:19.292Z,31.74
2023-05-21T12:08:19.458Z,32.76
2023-05-21T12:09:19.536Z,31.39
2023-05-21T12:10:19.737Z,31.31
2023-05-21T12:11:19.850Z,31.72
2023-05-21T12:12:19.988Z,30.87
2023-05-21T12:13:20.142Z,31.20
2023-05-21T12:14:20.245Z,31.77
2023-05-21T12:15:20.414Z,31.70
2023-05-21T12:16:20.534Z,28.62
2023-05-21T12:17:20.813Z,28.98
2023-05-21T12:18:20.723Z,30.52
2023-05-21T12:19:20.948Z,31.77
2023-05-21T12:20:21.132Z,33.10
2023-05-21T12:21:21.098Z,34.05
2023-05-21T12:22:21.212Z,34.41
2023-05-21T12:23:21.418Z,34.54
2023-05-21T12:24:21.492Z,34.94
2023-05-21T12:25:21.687Z,33.55
2023-05-21T12:26:21.767Z,32.77
2023-05-21T12:27:21.890Z,32.10
2023-05-21T12:28:21.981Z,32.17
2023-05-21T12:29:22.152Z,33.57
2023-05-21T12:30:22.261Z,35.01
2023-05-21T12:31:22.539Z,35.35
2023-05-21T12:32:22.570Z,35.48
2023-05-21T12:33:25.107Z,34.10
2023-05-21T12:34:22.665Z,32.16
2023-05-21T12:35:22.754Z,31.78
2023-05-21T12:36:22.406Z,32.37
2023-05-21T12:37:22.278Z,32.86
2023-05-21T12:38:22.199Z,33.10
2023-05-21T12:39:22.289Z,33.72
2023-05-21T12:40:22.554Z,34.74
2023-05-21T12:41:22.576Z,34.91
2023-05-21T12:42:22.649Z,34.16
2023-05-21T12:43:22.786Z,34.07
2023-05-21T12:44:22.954Z,32.71
2023-05-21T12:45:23.070Z,33.11
2023-05-21T12:46:23.287Z,32.96
2023-05-21T12:47:23.288Z,33.29
2023-05-21T12:48:23.430Z,33.84
2023-05-21T12:49:23.509Z,33.44
2023-05-21T12:50:23.637Z,33.07
2023-05-21T12:51:23.718Z,32.79
2023-05-21T12:52:23.933Z,33.20
2023-05-21T12:53:23.997Z,33.17